createdAt,value
2023-03-06T00:01:02.528Z,100132.28
2023-03-06T00:06:04.933Z,100156.72
2023-03-06T00:11:07.250Z,100150.88
2023-03-06T00:16:10.308Z,100143.66
2023-03-06T00:21:12.503Z,100149.66
2023-03-06T00:26:14.690Z,100133.88
2023-03-06T00:31:16.960Z,100137.84
2023-03-06T00:36:19.227Z,100125.59
2023-03-06T00:41:21.556Z,100153.06
2023-03-06T00:46:24.039Z,100140.84
2023-03-06T00:51:26.404Z,100158.59
2023-03-06T00:56:28.682Z,100161.09
2023-03-06T01:01:30.877Z,100162.22
2023-03-06T01:06:33.080Z,100165.50
2023-03-06T01:11:35.244Z,100152.19
2023-03-06T01:16:37.598Z,100159.13
2023-03-06T01:21:39.909Z,100169.44
2023-03-06T01:26:42.051Z,100166.91
2023-03-06T01:31:44.377Z,100149.25
2023-03-06T01:36:46.567Z,100166.13
2023-03-06T01:41:49.079Z,100153.75
2023-03-06T01:46:51.385Z,100171.53
2023-03-06T01:52:02.372Z,100151.72
2023-03-06T01:57:09.944Z,100158.09
2023-03-06T02:02:16.025Z,100157.91
2023-03-06T02:07:21.221Z,100179.13
2023-03-06T02:12:24.296Z,100181.88
2023-03-06T02:17:27.983Z,100189.63
2023-03-06T02:22:49.018Z,100197.59
2023-03-06T02:27:51.155Z,100193.63
2023-03-06T02:32:53.589Z,100192.59
2023-03-06T02:37:58.144Z,100194.44
2023-03-06T02:43:00.356Z,100209.22
2023-03-06T02:48:03.467Z,100194.47
2023-03-06T02:53:06.785Z,100199.00
2023-03-06T02:58:09.871Z,100200.78
2023-03-06T03:03:12.138Z,100181.94
2023-03-06T03:08:14.350Z,100182.13
2023-03-06T03:13:16.559Z,100201.25
2023-03-06T03:18:18.648Z,100180.03
2023-03-06T03:23:21.220Z,100180.69
2023-03-06T03:28:23.474Z,100186.34
2023-03-06T03:33:26.267Z,100222.03
2023-03-06T03:38:28.759Z,100219.03
2023-03-06T03:43:31.268Z,100219.44
2023-03-06T03:48:33.650Z,100243.81
2023-03-06T03:53:35.892Z,100213.03
2023-03-06T03:58:38.075Z,100241.88
2023-03-06T04:03:40.311Z,100246.59
2023-03-06T04:08:42.772Z,100235.84
2023-03-06T04:13:45.016Z,100241.66
2023-03-06T04:18:47.113Z,100241.81
2023-03-06T04:23:49.238Z,100258.50
2023-03-06T04:28:51.393Z,100254.78
2023-03-06T04:33:53.669Z,100274.16
2023-03-06T04:38:56.299Z,100290.84
2023-03-06T04:43:58.450Z,100287.38
2023-03-06T04:49:00.646Z,100282.75
2023-03-06T04:54:04.195Z,100278.44
2023-03-06T04:59:06.359Z,100294.94
2023-03-06T05:04:08.465Z,100295.66
2023-03-06T05:09:10.669Z,100296.66
2023-03-06T05:14:12.947Z,100282.63
2023-03-06T05:19:15.709Z,100279.78
2023-03-06T05:24:17.828Z,100302.94
2023-03-06T05:29:20.130Z,100303.38
2023-03-06T05:34:22.366Z,100308.25
2023-03-06T05:39:24.526Z,100320.44
2023-03-06T05:44:32.526Z,100312.59
2023-03-06T05:49:36.225Z,100346.03
2023-03-06T05:54:38.676Z,100333.94
2023-03-06T05:59:40.898Z,100333.78
2023-03-06T06:04:43.965Z,100351.28
2023-03-06T06:09:47.088Z,100352.63
2023-03-06T06:14:49.709Z,100340.22
2023-03-06T06:19:51.912Z,100381.31
2023-03-06T06:24:54.063Z,100361.75
2023-03-06T06:29:56.204Z,100381.97
2023-03-06T06:34:58.598Z,100386.16
2023-03-06T06:40:00.725Z,100389.59
2023-03-06T06:45:05.603Z,100404.91
2023-03-06T06:50:14.277Z,100386.72
2023-03-06T06:55:16.894Z,100390.56
2023-03-06T07:00:19.703Z,100387.88
2023-03-06T07:05:22.243Z,100405.38
2023-03-06T07:10:24.406Z,100397.59
2023-03-06T07:15:27.759Z,100409.84
2023-03-06T07:20:30.055Z,100418.56
2023-03-06T07:25:32.377Z,100405.69
2023-03-06T07:30:34.591Z,100412.28
2023-03-06T07:35:36.931Z,100437.09
2023-03-06T07:40:39.513Z,100424.06
2023-03-06T07:45:41.732Z,100427.78
2023-03-06T07:50:44.044Z,100428.53
2023-03-06T07:55:46.165Z,100429.09
2023-03-06T08:00:48.405Z,100441.38
2023-03-06T08:05:50.670Z,100454.78
2023-03-06T08:10:53.236Z,100438.47
2023-03-06T08:15:56.681Z,100434.41
2023-03-06T08:21:09.708Z,100458.00
2023-03-06T08:26:20.709Z,100444.94
2023-03-06T08:31:31.310Z,100449.44
2023-03-06T08:36:34.380Z,100426.34
2023-03-06T08:41:37.604Z,100445.97
2023-03-06T08:46:40.562Z,100451.97
2023-03-06T08:51:43.385Z,100437.88
2023-03-06T08:56:45.702Z,100432.28
2023-03-06T09:01:48.267Z,100440.22
2023-03-06T09:06:50.765Z,100427.47
2023-03-06T09:11:53.973Z,100429.09
2023-03-06T09:16:56.310Z,100429.81
2023-03-06T09:22:01.262Z,100434.66
2023-03-06T09:27:04.966Z,100416.81
2023-03-06T09:32:07.575Z,100434.91
2023-03-06T09:37:09.765Z,100432.41
2023-03-06T09:42:19.221Z,100440.50
2023-03-06T09:47:24.355Z,100430.97
2023-03-06T09:52:43.860Z,100440.47
2023-03-06T09:57:53.108Z,100432.63
2023-03-06T10:03:10.778Z,100415.63
2023-03-06T10:08:23.735Z,100432.38
2023-03-06T10:13:33.136Z,100425.22
2023-03-06T10:18:38.824Z,100424.31
2023-03-06T10:24:05.017Z,100416.84
2023-03-06T10:29:13.174Z,100419.47
2023-03-06T10:34:29.107Z,100412.63
2023-03-06T10:39:32.283Z,100373.63
2023-03-06T10:44:34.718Z,100394.91
2023-03-06T10:49:38.193Z,100383.53
2023-03-06T10:54:42.688Z,100369.97
2023-03-06T10:59:57.621Z,100371.09
2023-03-06T11:05:03.087Z,100353.63
2023-03-06T11:10:18.345Z,100351.78
2023-03-06T11:15:25.167Z,100350.31
2023-03-06T11:20:51.512Z,100352.84
2023-03-06T11:26:15.869Z,100337.06
2023-03-06T11:31:25.937Z,100322.66
2023-03-06T11:36:57.380Z,100324.88
2023-03-06T11:42:20.769Z,100327.84
2023-03-06T11:47:43.086Z,100311.28
2023-03-06T11:53:07.153Z,100298.31
2023-03-06T11:58:30.511Z,100298.66
2023-03-06T12:04:03.833Z,100290.63
2023-03-06T12:09:15.128Z,100288.56
2023-03-06T12:14:33.150Z,100287.13
2023-03-06T12:19:47.261Z,100278.31
2023-03-06T12:25:12.129Z,100275.00
2023-03-06T12:31:03.114Z,100273.28
2023-03-06T12:36:56.109Z,100260.22
2023-03-06T12:42:22.882Z,100255.88
2023-03-06T12:47:28.598Z,100240.25
2023-03-06T12:52:33.591Z,100240.69
2023-03-06T12:57:35.937Z,100231.03
2023-03-06T13:03:24.618Z,100244.06
2023-03-06T13:08:47.085Z,100235.34
2023-03-06T13:13:49.530Z,100226.22
2023-03-06T13:19:19.347Z,100226.13
2023-03-06T13:24:27.176Z,100217.63
2023-03-06T13:29:38.440Z,100222.72
2023-03-06T13:34:52.074Z,100210.56
2023-03-06T13:40:00.006Z,100208.91
2023-03-06T13:45:27.654Z,100210.09
2023-03-06T13:50:43.128Z,100214.94
2023-03-06T13:56:19.930Z,100194.31
2023-03-06T14:01:47.377Z,100198.66
2023-03-06T14:07:04.405Z,100178.72
2023-03-06T14:12:13.699Z,100174.28
2023-03-06T14:17:34.799Z,100173.94
2023-03-06T14:22:37.768Z,100170.97
2023-03-06T14:27:50.381Z,100172.50
2023-03-06T14:32:55.198Z,100181.44
2023-03-06T14:38:04.957Z,100183.22
2023-03-06T14:43:21.146Z,100180.16
2023-03-06T14:48:25.730Z,100183.34
2023-03-06T14:53:30.969Z,100170.19
2023-03-06T14:58:45.523Z,100169.75
2023-03-06T15:03:53.396Z,100173.41
2023-03-06T15:09:07.264Z,100174.28
2023-03-06T15:14:21.916Z,100187.13
2023-03-06T15:19:24.363Z,100190.19
2023-03-06T15:24:36.337Z,100186.09
2023-03-06T15:29:39.484Z,100203.22
2023-03-06T15:34:41.791Z,100184.34
2023-03-06T15:39:46.808Z,100190.66
2023-03-06T15:44:54.266Z,100209.03
2023-03-06T15:49:57.268Z,100189.25
2023-03-06T15:55:00.235Z,100193.91
2023-03-06T16:00:03.716Z,100178.03
2023-03-06T16:05:16.535Z,100177.88
2023-03-06T16:10:21.784Z,100216.66
2023-03-06T16:15:30.531Z,100203.56
2023-03-06T16:20:33.846Z,100217.66
2023-03-06T16:25:36.967Z,100208.63
2023-03-06T16:30:39.208Z,100236.16
2023-03-06T16:35:41.708Z,100227.03
2023-03-06T16:40:44.200Z,100194.50
2023-03-06T16:45:46.888Z,100189.94
2023-03-06T16:50:49.377Z,100201.97
2023-03-06T16:55:51.648Z,100216.69
2023-03-06T17:00:54.920Z,100219.97
2023-03-06T17:05:57.162Z,100197.09
2023-03-06T17:10:59.782Z,100197.31
2023-03-06T17:16:04.157Z,100211.69
2023-03-06T17:21:08.969Z,100218.88
2023-03-06T17:26:12.771Z,100221.78
2023-03-06T17:31:23.753Z,100207.66
2023-03-06T17:36:26.685Z,100216.72
2023-03-06T17:41:29.709Z,100216.44
2023-03-06T17:46:32.461Z,100228.72
2023-03-06T17:51:34.677Z,100222.75
2023-03-06T17:56:38.645Z,100224.50
2023-03-06T18:01:41.675Z,100251.53
2023-03-06T18:06:43.868Z,100251.72
2023-03-06T18:11:46.180Z,100255.19
2023-03-06T18:16:48.872Z,100257.81
2023-03-06T18:21:51.022Z,100267.72
2023-03-06T18:26:53.147Z,100274.09
2023-03-06T18:31:57.208Z,100278.75
2023-03-06T18:36:59.365Z,100260.19
2023-03-06T18:42:02.741Z,100265.34
2023-03-06T18:47:05.046Z,100269.72
2023-03-06T18:52:07.346Z,100275.38
2023-03-06T18:57:12.613Z,100244.66
2023-03-06T19:02:15.621Z,100238.81
2023-03-06T19:07:17.836Z,100261.66
2023-03-06T19:12:20.561Z,100254.13
2023-03-06T19:17:24.958Z,100262.78
2023-03-06T19:22:27.322Z,100255.03
2023-03-06T19:27:30.578Z,100265.25
2023-03-06T19:32:33.586Z,100282.41
2023-03-06T19:37:36.857Z,100288.19
2023-03-06T19:42:39.286Z,100292.50
2023-03-06T19:47:41.610Z,100290.16
2023-03-06T19:52:43.809Z,100278.63
2023-03-06T19:57:46.077Z,100281.28
2023-03-06T20:02:48.236Z,100284.81
2023-03-06T20:07:50.875Z,100297.50
2023-03-06T20:12:53.555Z,100284.69
2023-03-06T20:17:56.879Z,100262.13
2023-03-06T20:23:04.592Z,100264.81
2023-03-06T20:28:06.754Z,100257.06
2023-03-06T20:33:09.426Z,100264.63
2023-03-06T20:38:12.142Z,100262.03
2023-03-06T20:43:14.382Z,100260.88
2023-03-06T20:48:16.639Z,100277.38
2023-03-06T20:53:19.516Z,100285.09
2023-03-06T20:58:23.682Z,100251.94
2023-03-06T21:03:26.042Z,100264.47
2023-03-06T21:08:28.285Z,100269.56
2023-03-06T21:13:30.514Z,100254.81
2023-03-06T21:18:32.823Z,100264.25
2023-03-06T21:23:35.153Z,100256.06
2023-03-06T21:34:05.340Z,100250.94
2023-03-06T21:39:07.848Z,100250.97
2023-03-06T21:44:11.393Z,100254.13
2023-03-06T21:49:19.075Z,100244.78
2023-03-06T21:54:21.911Z,100232.56
2023-03-06T21:59:24.360Z,100253.69
2023-03-06T22:04:36.405Z,100242.53
2023-03-06T22:09:38.835Z,100238.41
2023-03-06T22:14:45.647Z,100231.56
2023-03-06T22:19:50.429Z,100217.09
2023-03-06T22:25:00.329Z,100214.56
2023-03-06T22:30:03.730Z,100234.06
2023-03-06T22:35:10.005Z,100210.66
2023-03-06T22:40:14.528Z,100204.72
2023-03-06T22:45:17.313Z,100226.03
2023-03-06T22:50:19.580Z,100208.81
2023-03-06T22:55:21.731Z,100222.31
2023-03-06T23:00:24.053Z,100228.41
2023-03-06T23:05:28.468Z,100205.22
2023-03-06T23:10:31.510Z,100229.31
2023-03-06T23:15:36.628Z,100204.53
2023-03-06T23:20:45.424Z,100195.59
2023-03-06T23:25:47.602Z,100215.91
2023-03-06T23:30:49.886Z,100204.06
2023-03-06T23:35:52.252Z,100231.59
2023-03-06T23:40:54.464Z,100226.19
2023-03-06T23:45:57.253Z,100226.19
2023-03-06T23:50:59.631Z,100201.91
2023-03-06T23:56:03.360Z,100218.19
